createdAt,value
2022-12-20T00:00:30.944Z,993.62
2022-12-20T00:01:31.026Z,993.61
2022-12-20T00:02:31.088Z,993.61
2022-12-20T00:03:30.919Z,993.55
2022-12-20T00:04:30.932Z,993.54
2022-12-20T00:05:30.889Z,993.55
2022-12-20T00:06:30.904Z,993.53
2022-12-20T00:07:30.874Z,993.57
2022-12-20T00:08:31.882Z,993.59
2022-12-20T00:09:30.875Z,993.60
2022-12-20T00:10:30.859Z,993.59
2022-12-20T00:11:30.859Z,993.57
2022-12-20T00:12:30.823Z,993.61
2022-12-20T00:13:30.820Z,993.54
2022-12-20T00:14:30.848Z,993.56
2022-12-20T00:15:30.803Z,993.60
2022-12-20T00:16:30.776Z,993.54
2022-12-20T00:17:30.808Z,993.54
2022-12-20T00:18:30.762Z,993.54
2022-12-20T00:19:30.766Z,993.53
2022-12-20T00:20:30.754Z,993.58
2022-12-20T00:21:30.730Z,993.49
2022-12-20T00:22:30.709Z,993.50
2022-12-20T00:23:30.717Z,993.53
2022-12-20T00:24:30.721Z,993.53
2022-12-20T00:25:30.684Z,993.49
2022-12-20T00:26:30.684Z,993.51
2022-12-20T00:27:30.676Z,993.48
2022-12-20T00:28:30.677Z,993.47
2022-12-20T00:29:30.689Z,993.43
2022-12-20T00:30:30.656Z,993.45
2022-12-20T00:31:30.676Z,993.39
2022-12-20T00:32:30.631Z,993.38
2022-12-20T00:33:30.619Z,993.39
2022-12-20T00:34:30.616Z,993.36
2022-12-20T00:35:30.592Z,993.36
2022-12-20T00:36:30.586Z,993.44
2022-12-20T00:37:30.629Z,993.46
2022-12-20T00:38:31.645Z,993.44
2022-12-20T00:39:30.571Z,993.41
2022-12-20T00:40:30.551Z,993.47
2022-12-20T00:41:30.531Z,993.41
2022-12-20T00:42:30.526Z,993.44
2022-12-20T00:43:30.525Z,993.47
2022-12-20T00:44:30.545Z,993.48
2022-12-20T00:45:30.501Z,993.47
2022-12-20T00:46:30.515Z,993.48
2022-12-20T00:47:30.473Z,993.48
2022-12-20T00:48:30.459Z,993.42
2022-12-20T00:49:30.489Z,993.52
2022-12-20T00:50:30.442Z,993.53
2022-12-20T00:51:30.450Z,993.50
2022-12-20T00:52:30.419Z,993.48
2022-12-20T00:53:30.496Z,993.55
2022-12-20T00:54:30.414Z,993.41
2022-12-20T00:55:30.397Z,993.49
2022-12-20T00:56:30.416Z,993.52
2022-12-20T00:57:30.378Z,993.44
2022-12-20T00:58:30.369Z,993.48
2022-12-20T00:59:30.360Z,993.39
2022-12-20T01:00:30.347Z,993.40
2022-12-20T01:01:30.629Z,993.38
2022-12-20T01:02:30.488Z,993.34
2022-12-20T01:03:30.353Z,993.39
2022-12-20T01:04:30.318Z,993.35
2022-12-20T01:05:30.305Z,993.44
2022-12-20T01:06:30.303Z,993.38
2022-12-20T01:07:30.275Z,993.39
2022-12-20T01:08:30.281Z,993.36
2022-12-20T01:09:30.271Z,993.32
2022-12-20T01:10:31.249Z,993.29
2022-12-20T01:11:30.235Z,993.26
2022-12-20T01:12:30.302Z,993.25
2022-12-20T01:13:30.236Z,993.24
2022-12-20T01:14:30.210Z,993.22
2022-12-20T01:15:30.207Z,993.22
2022-12-20T01:16:30.248Z,993.11
2022-12-20T01:17:30.205Z,993.08
2022-12-20T01:18:30.191Z,993.04
2022-12-20T01:19:30.188Z,993.01
2022-12-20T01:20:30.177Z,992.98
2022-12-20T01:21:30.132Z,993.03
2022-12-20T01:22:30.145Z,993.00
2022-12-20T01:23:30.118Z,992.96
2022-12-20T01:24:30.108Z,993.10
2022-12-20T01:25:30.128Z,993.09
2022-12-20T01:26:30.087Z,992.95
2022-12-20T01:27:30.083Z,993.04
2022-12-20T01:28:30.086Z,992.91
2022-12-20T01:29:30.082Z,992.87
2022-12-20T01:30:30.074Z,992.89
2022-12-20T01:31:30.185Z,992.88
2022-12-20T01:32:30.028Z,992.85
2022-12-20T01:33:31.029Z,992.95
2022-12-20T01:34:30.026Z,992.86
2022-12-20T01:35:30.014Z,992.86
2022-12-20T01:36:30.010Z,992.86
2022-12-20T01:37:29.981Z,992.88
2022-12-20T01:38:30.001Z,992.88
2022-12-20T01:39:29.979Z,992.89
2022-12-20T01:40:29.958Z,992.91
2022-12-20T01:41:29.964Z,992.93
2022-12-20T01:42:29.949Z,992.91
2022-12-20T01:43:29.970Z,992.95
2022-12-20T01:44:29.929Z,992.92
2022-12-20T01:45:29.954Z,992.92
2022-12-20T01:46:30.029Z,992.90
2022-12-20T01:47:29.919Z,992.94
2022-12-20T01:48:29.902Z,992.92
2022-12-20T01:49:29.883Z,992.90
2022-12-20T01:50:29.883Z,992.91
2022-12-20T01:51:29.852Z,992.94
2022-12-20T01:52:29.885Z,992.96
2022-12-20T01:53:29.844Z,992.94
2022-12-20T01:54:29.833Z,992.97
2022-12-20T01:55:29.860Z,992.98
2022-12-20T01:56:29.801Z,993.00
2022-12-20T01:57:29.800Z,992.96
2022-12-20T01:58:29.831Z,992.96
2022-12-20T01:59:29.778Z,992.93
2022-12-20T02:00:29.775Z,992.86
2022-12-20T02:01:29.918Z,992.83
2022-12-20T02:02:29.821Z,992.79
2022-12-20T02:03:29.779Z,992.81
2022-12-20T02:04:29.729Z,992.78
2022-12-20T02:05:29.746Z,992.86
2022-12-20T02:06:29.719Z,992.92
2022-12-20T02:07:29.703Z,992.89
2022-12-20T02:08:29.708Z,992.91
2022-12-20T02:09:29.686Z,992.84
2022-12-20T02:10:29.673Z,992.93
2022-12-20T02:11:29.661Z,992.90
2022-12-20T02:12:29.648Z,992.83
2022-12-20T02:13:29.659Z,992.80
2022-12-20T02:14:29.635Z,992.74
2022-12-20T02:15:29.617Z,992.72
2022-12-20T02:16:29.654Z,992.74
2022-12-20T02:17:29.600Z,992.65
2022-12-20T02:18:29.604Z,992.72
2022-12-20T02:19:29.593Z,992.69
2022-12-20T02:20:29.601Z,992.74
2022-12-20T02:21:29.568Z,992.73
2022-12-20T02:22:29.547Z,992.73
2022-12-20T02:23:29.537Z,992.67
2022-12-20T02:24:29.541Z,992.63
2022-12-20T02:25:29.546Z,992.63
2022-12-20T02:26:29.516Z,992.65
2022-12-20T02:27:29.496Z,992.65
2022-12-20T02:28:29.502Z,992.65
2022-12-20T02:29:30.518Z,992.63
2022-12-20T02:30:29.464Z,992.65
2022-12-20T02:31:29.482Z,992.55
2022-12-20T02:32:29.491Z,992.64
2022-12-20T02:33:29.466Z,992.55
2022-12-20T02:34:29.435Z,992.56
2022-12-20T02:35:29.412Z,992.60
2022-12-20T02:36:29.444Z,992.53
2022-12-20T02:37:29.392Z,992.49
2022-12-20T02:38:29.381Z,992.47
2022-12-20T02:39:29.368Z,992.48
2022-12-20T02:40:29.373Z,992.44
2022-12-20T02:41:29.376Z,992.47
2022-12-20T02:42:29.348Z,992.54
2022-12-20T02:43:29.371Z,992.60
2022-12-20T02:44:29.361Z,992.69
2022-12-20T02:45:29.361Z,992.69
2022-12-20T02:46:29.401Z,992.59
2022-12-20T02:47:29.302Z,992.57
2022-12-20T02:48:29.280Z,992.52
2022-12-20T02:49:29.289Z,992.49
2022-12-20T02:50:29.270Z,992.58
2022-12-20T02:51:29.286Z,992.47
2022-12-20T02:52:29.277Z,992.47
2022-12-20T02:53:29.263Z,992.50
2022-12-20T02:54:29.258Z,992.53
2022-12-20T02:55:29.227Z,992.47
2022-12-20T02:56:29.217Z,992.51
2022-12-20T02:57:29.242Z,992.56
2022-12-20T02:58:29.195Z,992.61
2022-12-20T02:59:29.222Z,992.63
2022-12-20T03:00:29.160Z,992.59
2022-12-20T03:01:29.280Z,992.51
2022-12-20T03:02:29.274Z,992.43
2022-12-20T03:03:29.241Z,992.45
2022-12-20T03:04:29.176Z,992.49
2022-12-20T03:05:29.158Z,992.48
2022-12-20T03:06:29.097Z,992.39
2022-12-20T03:07:29.109Z,992.44
2022-12-20T03:08:29.091Z,992.37
2022-12-20T03:09:29.097Z,992.43
2022-12-20T03:10:29.159Z,992.52
2022-12-20T03:11:29.052Z,992.52
2022-12-20T03:12:29.054Z,992.57
2022-12-20T03:13:29.053Z,992.51
2022-12-20T03:14:29.017Z,992.58
2022-12-20T03:15:29.015Z,992.54
2022-12-20T03:16:29.068Z,992.49
2022-12-20T03:17:29.020Z,992.50
2022-12-20T03:18:28.994Z,992.46
2022-12-20T03:20:00.926Z,992.48
2022-12-20T03:20:28.970Z,992.43
2022-12-20T03:21:28.967Z,992.34
2022-12-20T03:22:28.952Z,992.35
2022-12-20T03:23:28.959Z,992.36
2022-12-20T03:24:28.926Z,992.35
2022-12-20T03:25:28.970Z,992.36
2022-12-20T03:26:28.908Z,992.35
2022-12-20T03:27:28.915Z,992.37
2022-12-20T03:28:28.897Z,992.37
2022-12-20T03:29:28.909Z,992.42
2022-12-20T03:30:28.911Z,992.37
2022-12-20T03:31:28.936Z,992.33
2022-12-20T03:32:28.863Z,992.32
2022-12-20T03:33:28.887Z,992.27
2022-12-20T03:34:28.829Z,992.27
2022-12-20T03:35:28.822Z,992.23
2022-12-20T03:36:28.817Z,992.21
2022-12-20T03:37:28.800Z,992.22
2022-12-20T03:38:28.840Z,992.25
2022-12-20T03:39:28.773Z,992.25
2022-12-20T03:40:28.782Z,992.28
2022-12-20T03:41:28.765Z,992.31
2022-12-20T03:42:28.764Z,992.25
2022-12-20T03:43:28.790Z,992.30
2022-12-20T03:44:28.799Z,992.32
2022-12-20T03:45:28.725Z,992.28
2022-12-20T03:46:28.833Z,992.29
2022-12-20T03:47:28.717Z,992.29
2022-12-20T03:48:28.720Z,992.23
2022-12-20T03:49:28.754Z,992.29
2022-12-20T03:50:28.683Z,992.30
2022-12-20T03:51:28.684Z,992.35
2022-12-20T03:52:28.656Z,992.30
2022-12-20T03:53:28.652Z,992.34
2022-12-20T03:54:28.680Z,992.33
2022-12-20T03:55:28.623Z,992.44
2022-12-20T03:56:28.622Z,992.42
2022-12-20T03:57:28.625Z,992.36
2022-12-20T03:58:28.603Z,992.32
2022-12-20T03:59:28.592Z,992.33
2022-12-20T04:00:28.574Z,992.31
2022-12-20T04:01:28.701Z,992.36
2022-12-20T04:02:28.739Z,992.35
2022-12-20T04:03:28.663Z,992.33
2022-12-20T04:04:28.555Z,992.34
2022-12-20T04:05:28.546Z,992.34
2022-12-20T04:06:28.720Z,992.26
2022-12-20T04:07:28.501Z,992.26
2022-12-20T04:08:28.523Z,992.31
2022-12-20T04:09:28.536Z,992.37
2022-12-20T04:10:28.474Z,992.36
2022-12-20T04:11:28.475Z,992.31
2022-12-20T04:12:28.487Z,992.32
2022-12-20T04:13:28.447Z,992.28
2022-12-20T04:14:28.445Z,992.36
2022-12-20T04:15:28.529Z,992.33
2022-12-20T04:16:28.509Z,992.34
2022-12-20T04:17:28.463Z,992.32
2022-12-20T04:18:28.404Z,992.36
2022-12-20T04:19:28.421Z,992.38
2022-12-20T04:20:28.377Z,992.41
2022-12-20T04:21:28.382Z,992.38
2022-12-20T04:22:28.379Z,992.31
2022-12-20T04:23:29.358Z,992.28
2022-12-20T04:24:28.364Z,992.23
2022-12-20T04:25:28.346Z,992.19
2022-12-20T04:26:28.336Z,992.14
2022-12-20T04:27:28.318Z,992.12
2022-12-20T04:28:28.315Z,992.14
2022-12-20T04:29:28.303Z,992.15
2022-12-20T04:30:28.307Z,992.07
2022-12-20T04:31:28.357Z,992.05
2022-12-20T04:32:28.266Z,992.10
2022-12-20T04:33:28.246Z,992.04
2022-12-20T04:34:28.236Z,992.02
2022-12-20T04:35:28.254Z,992.07
2022-12-20T04:36:28.231Z,992.07
2022-12-20T04:37:28.221Z,992.07
2022-12-20T04:38:28.202Z,992.11
2022-12-20T04:39:28.223Z,992.04
2022-12-20T04:40:28.178Z,991.98
2022-12-20T04:41:28.186Z,991.97
2022-12-20T04:42:28.180Z,991.99
2022-12-20T04:43:28.163Z,992.01
2022-12-20T04:44:28.154Z,991.97
2022-12-20T04:45:28.137Z,991.93
2022-12-20T04:46:28.193Z,991.93
2022-12-20T04:47:28.163Z,992.02
2022-12-20T04:49:30.089Z,992.06
2022-12-20T04:50:28.108Z,992.02
2022-12-20T04:51:28.081Z,992.01
2022-12-20T04:52:28.102Z,991.98
2022-12-20T04:53:28.066Z,991.96
2022-12-20T04:54:28.061Z,991.93
2022-12-20T04:55:28.049Z,991.84
2022-12-20T04:56:28.049Z,991.82
2022-12-20T04:57:28.035Z,991.75
2022-12-20T04:58:28.008Z,991.78
2022-12-20T04:59:28.000Z,991.72
2022-12-20T05:00:27.995Z,991.74
2022-12-20T05:01:28.099Z,991.70
2022-12-20T05:02:28.153Z,991.83
2022-12-20T05:03:27.972Z,991.82
2022-12-20T05:04:31.675Z,991.86
2022-12-20T05:05:29.943Z,991.85
2022-12-20T05:06:27.960Z,991.82
2022-12-20T05:07:27.925Z,991.82
2022-12-20T05:08:27.906Z,991.88
2022-12-20T05:09:27.900Z,991.85
2022-12-20T05:10:27.884Z,991.77
2022-12-20T05:11:27.897Z,991.75
2022-12-20T05:12:27.886Z,991.76
2022-12-20T05:13:27.851Z,991.86
2022-12-20T05:14:27.830Z,991.86
2022-12-20T05:15:27.854Z,991.90
2022-12-20T05:16:27.895Z,991.88
2022-12-20T05:17:27.798Z,991.91
2022-12-20T05:18:27.830Z,991.92
2022-12-20T05:19:27.794Z,991.86
2022-12-20T05:20:27.780Z,991.85
2022-12-20T05:21:27.801Z,991.77
2022-12-20T05:22:27.775Z,991.78
2022-12-20T05:23:27.750Z,991.83
2022-12-20T05:24:27.741Z,991.84
2022-12-20T05:25:27.746Z,991.84
2022-12-20T05:26:27.768Z,991.81
2022-12-20T05:27:27.729Z,991.70
2022-12-20T05:28:27.717Z,991.71
2022-12-20T05:29:27.707Z,991.66
2022-12-20T05:30:27.700Z,991.74
2022-12-20T05:31:27.748Z,991.74
2022-12-20T05:32:27.710Z,991.72
2022-12-20T05:33:33.680Z,991.75
2022-12-20T05:34:28.681Z,991.68
2022-12-20T05:35:27.627Z,991.72
2022-12-20T05:36:27.639Z,991.70
2022-12-20T05:37:27.627Z,991.68
2022-12-20T05:38:27.615Z,991.65
2022-12-20T05:39:28.610Z,991.59
2022-12-20T05:40:27.595Z,991.58
2022-12-20T05:41:27.584Z,991.56
2022-12-20T05:42:27.571Z,991.51
2022-12-20T05:43:27.552Z,991.52
2022-12-20T05:44:27.557Z,991.53
2022-12-20T05:45:27.556Z,991.48
2022-12-20T05:46:27.559Z,991.48
2022-12-20T05:47:27.517Z,991.42
2022-12-20T05:48:27.515Z,991.43
2022-12-20T05:49:27.506Z,991.40
2022-12-20T05:50:27.509Z,991.36
2022-12-20T05:51:27.484Z,991.36
2022-12-20T05:52:27.471Z,991.35
2022-12-20T05:53:27.478Z,991.39
2022-12-20T05:54:27.460Z,991.40
2022-12-20T05:55:27.453Z,991.44
2022-12-20T05:56:27.448Z,991.44
2022-12-20T05:57:27.422Z,991.50
2022-12-20T05:58:27.429Z,991.49
2022-12-20T05:59:27.429Z,991.52
2022-12-20T06:00:27.390Z,991.57
2022-12-20T06:01:27.471Z,991.55
2022-12-20T06:02:27.462Z,991.63
2022-12-20T06:03:27.510Z,991.59
2022-12-20T06:04:27.365Z,991.60
2022-12-20T06:05:27.331Z,991.66
2022-12-20T06:06:27.344Z,991.63
2022-12-20T06:07:27.316Z,991.63
2022-12-20T06:08:27.299Z,991.61
2022-12-20T06:09:27.300Z,991.61
2022-12-20T06:10:27.313Z,991.61
2022-12-20T06:11:30.204Z,991.63
2022-12-20T06:12:27.292Z,991.73
2022-12-20T06:13:27.270Z,991.71
2022-12-20T06:14:27.256Z,991.65
2022-12-20T06:15:27.276Z,991.71
2022-12-20T06:16:27.292Z,991.72
2022-12-20T06:17:27.235Z,991.72
2022-12-20T06:18:27.252Z,991.71
2022-12-20T06:19:27.195Z,991.72
2022-12-20T06:20:27.219Z,991.80
2022-12-20T06:21:27.224Z,991.72
2022-12-20T06:22:27.205Z,991.71
2022-12-20T06:23:27.200Z,991.69
2022-12-20T06:24:27.168Z,991.67
2022-12-20T06:25:27.152Z,991.60
2022-12-20T06:26:27.157Z,991.62
2022-12-20T06:27:27.139Z,991.55
2022-12-20T06:28:27.113Z,991.57
2022-12-20T06:29:27.119Z,991.52
2022-12-20T06:30:33.362Z,991.48
2022-12-20T06:31:28.118Z,991.52
2022-12-20T06:32:27.067Z,991.57
2022-12-20T06:33:27.077Z,991.51
2022-12-20T06:34:27.058Z,991.58
2022-12-20T06:35:27.073Z,991.49
2022-12-20T06:36:27.040Z,991.59
2022-12-20T06:37:27.032Z,991.65
2022-12-20T06:38:27.020Z,991.60
2022-12-20T06:39:27.026Z,991.61
2022-12-20T06:40:26.996Z,991.59
2022-12-20T06:41:27.023Z,991.55
2022-12-20T06:42:26.977Z,991.53
2022-12-20T06:43:26.970Z,991.39
2022-12-20T06:44:26.976Z,991.37
2022-12-20T06:45:27.001Z,991.47
2022-12-20T06:46:26.989Z,991.46
2022-12-20T06:47:26.941Z,991.50
2022-12-20T06:48:26.923Z,991.44
2022-12-20T06:49:26.934Z,991.52
2022-12-20T06:50:26.925Z,991.52
2022-12-20T06:51:26.908Z,991.51
2022-12-20T06:52:26.894Z,991.46
2022-12-20T06:53:26.873Z,991.53
2022-12-20T06:54:26.852Z,991.62
2022-12-20T06:55:26.839Z,991.68
2022-12-20T06:56:26.863Z,991.61
2022-12-20T06:57:26.819Z,991.65
2022-12-20T06:58:26.816Z,991.69
2022-12-20T06:59:26.815Z,991.63
2022-12-20T07:00:26.834Z,991.57
2022-12-20T07:01:26.909Z,991.51
2022-12-20T07:02:27.902Z,991.51
2022-12-20T07:03:27.861Z,991.47
2022-12-20T07:04:26.750Z,991.33
2022-12-20T07:05:26.808Z,991.31
2022-12-20T07:06:26.741Z,991.33
2022-12-20T07:07:26.724Z,991.39
2022-12-20T07:08:26.712Z,991.41
2022-12-20T07:09:26.706Z,991.41
2022-12-20T07:10:26.704Z,991.41
2022-12-20T07:11:26.695Z,991.39
2022-12-20T07:12:26.670Z,991.44
2022-12-20T07:13:26.674Z,991.46
2022-12-20T07:14:26.682Z,991.51
2022-12-20T07:15:26.648Z,991.55
2022-12-20T07:16:26.768Z,991.56
2022-12-20T07:17:26.626Z,991.54
2022-12-20T07:18:26.616Z,991.48
2022-12-20T07:19:26.617Z,991.55
2022-12-20T07:20:26.665Z,991.55
2022-12-20T07:21:26.601Z,991.66
2022-12-20T07:22:26.614Z,991.54
2022-12-20T07:23:26.570Z,991.56
2022-12-20T07:24:26.568Z,991.56
2022-12-20T07:25:26.547Z,991.56
2022-12-20T07:26:26.537Z,991.49
2022-12-20T07:27:26.546Z,991.47
2022-12-20T07:28:26.533Z,991.50
2022-12-20T07:29:26.512Z,991.47
2022-12-20T07:30:26.493Z,991.47
2022-12-20T07:31:26.612Z,991.46
2022-12-20T07:32:26.495Z,991.51
2022-12-20T07:33:26.469Z,991.51
2022-12-20T07:34:26.506Z,991.50
2022-12-20T07:35:26.461Z,991.52
2022-12-20T07:36:26.420Z,991.57
2022-12-20T07:37:26.423Z,991.60
2022-12-20T07:38:26.428Z,991.55
2022-12-20T07:39:26.426Z,991.58
2022-12-20T07:40:26.423Z,991.49
2022-12-20T07:41:26.389Z,991.53
2022-12-20T07:42:33.556Z,991.53
2022-12-20T07:43:27.398Z,991.52
2022-12-20T07:44:26.367Z,991.52
2022-12-20T07:45:26.403Z,991.57
2022-12-20T07:46:26.373Z,991.62
2022-12-20T07:47:26.341Z,991.58
2022-12-20T07:48:26.351Z,991.59
2022-12-20T07:49:26.315Z,991.63
2022-12-20T07:50:26.329Z,991.58
2022-12-20T07:51:26.283Z,991.65
2022-12-20T07:52:26.317Z,991.66
2022-12-20T07:53:26.338Z,991.60
2022-12-20T07:54:26.279Z,991.60
2022-12-20T07:55:26.257Z,991.52
2022-12-20T07:56:26.309Z,991.55
2022-12-20T07:57:26.231Z,991.53
2022-12-20T07:58:26.223Z,991.55
2022-12-20T07:59:26.227Z,991.56
2022-12-20T08:00:26.199Z,991.51
2022-12-20T08:01:26.459Z,991.52
2022-12-20T08:02:26.343Z,991.49
2022-12-20T08:03:26.344Z,991.52
2022-12-20T08:04:26.188Z,991.53
2022-12-20T08:05:26.159Z,991.46
2022-12-20T08:06:26.148Z,991.52
2022-12-20T08:07:26.170Z,991.52
2022-12-20T08:08:26.217Z,991.50
2022-12-20T08:09:26.139Z,991.46
2022-12-20T08:10:26.187Z,991.47
2022-12-20T08:11:26.088Z,991.34
2022-12-20T08:12:26.088Z,991.26
2022-12-20T08:13:26.107Z,991.22
2022-12-20T08:14:26.086Z,991.18
2022-12-20T08:15:26.083Z,991.14
2022-12-20T08:16:26.147Z,991.11
2022-12-20T08:17:26.060Z,991.09
2022-12-20T08:18:26.032Z,991.04
2022-12-20T08:19:32.051Z,991.08
2022-12-20T08:20:27.040Z,991.12
2022-12-20T08:21:25.993Z,991.04
2022-12-20T08:22:25.996Z,990.97
2022-12-20T08:23:25.983Z,991.04
2022-12-20T08:24:26.035Z,991.00
2022-12-20T08:25:25.961Z,990.97
2022-12-20T08:26:25.979Z,990.98
2022-12-20T08:27:25.957Z,990.92
2022-12-20T08:28:25.942Z,990.93
2022-12-20T08:29:25.926Z,990.96
2022-12-20T08:30:25.946Z,990.81
2022-12-20T08:31:25.977Z,990.73
2022-12-20T08:32:25.901Z,990.77
2022-12-20T08:33:25.869Z,990.71
2022-12-20T08:34:25.870Z,990.72
2022-12-20T08:35:25.853Z,990.76
2022-12-20T08:36:26.888Z,990.78
2022-12-20T08:37:25.850Z,990.79
2022-12-20T08:38:25.829Z,990.79
2022-12-20T08:39:25.824Z,990.84
2022-12-20T08:40:25.905Z,990.81
2022-12-20T08:41:25.829Z,990.82
2022-12-20T08:42:25.795Z,990.88
2022-12-20T08:43:25.797Z,990.87
2022-12-20T08:44:25.813Z,990.82
2022-12-20T08:45:25.775Z,990.74
2022-12-20T08:46:25.809Z,990.69
2022-12-20T08:47:25.748Z,990.66
2022-12-20T08:48:25.726Z,990.61
2022-12-20T08:49:25.750Z,990.54
2022-12-20T08:50:25.802Z,990.45
2022-12-20T08:51:25.821Z,990.49
2022-12-20T08:52:25.707Z,990.46
2022-12-20T08:53:25.691Z,990.47
2022-12-20T08:54:25.677Z,990.38
2022-12-20T08:55:29.305Z,990.34
2022-12-20T08:56:25.649Z,990.31
2022-12-20T08:57:25.651Z,990.36
2022-12-20T08:58:25.645Z,990.32
2022-12-20T08:59:25.620Z,990.36
2022-12-20T09:00:25.728Z,990.39
2022-12-20T09:01:25.702Z,990.36
2022-12-20T09:02:25.782Z,990.39
2022-12-20T09:03:25.637Z,990.34
2022-12-20T09:04:25.596Z,990.37
2022-12-20T09:05:25.589Z,990.40
2022-12-20T09:06:25.564Z,990.40
2022-12-20T09:07:25.550Z,990.34
2022-12-20T09:08:25.546Z,990.39
2022-12-20T09:09:25.591Z,990.38
2022-12-20T09:10:25.562Z,990.41
2022-12-20T09:11:25.519Z,990.46
2022-12-20T09:12:25.497Z,990.40
2022-12-20T09:13:25.492Z,990.49
2022-12-20T09:14:25.494Z,990.45
2022-12-20T09:15:25.506Z,990.51
2022-12-20T09:16:25.526Z,990.45
2022-12-20T09:17:25.452Z,990.48
2022-12-20T09:18:25.427Z,990.49
2022-12-20T09:19:25.440Z,990.46
2022-12-20T09:20:57.336Z,990.41
2022-12-20T09:21:25.414Z,990.42
2022-12-20T09:22:25.407Z,990.47
2022-12-20T09:23:25.386Z,990.54
2022-12-20T09:24:25.398Z,990.51
2022-12-20T09:25:25.393Z,990.44
2022-12-20T09:26:25.376Z,990.48
2022-12-20T09:27:25.340Z,990.44
2022-12-20T09:28:26.352Z,990.47
2022-12-20T09:29:30.780Z,990.48
2022-12-20T09:30:27.349Z,990.47
2022-12-20T09:31:25.363Z,990.47
2022-12-20T09:32:25.291Z,990.46
2022-12-20T09:33:25.291Z,990.49
2022-12-20T09:34:25.286Z,990.44
2022-12-20T09:35:25.296Z,990.45
2022-12-20T09:36:25.262Z,990.43
2022-12-20T09:37:25.260Z,990.46
2022-12-20T09:38:25.231Z,990.59
2022-12-20T09:39:25.269Z,990.58
2022-12-20T09:40:25.300Z,990.54
2022-12-20T09:41:25.231Z,990.57
2022-12-20T09:42:25.218Z,990.58
2022-12-20T09:43:25.219Z,990.59
2022-12-20T09:44:25.242Z,990.54
2022-12-20T09:45:25.190Z,990.51
2022-12-20T09:46:25.193Z,990.53
2022-12-20T09:47:25.183Z,990.57
2022-12-20T09:48:25.141Z,990.53
2022-12-20T09:49:25.163Z,990.51
2022-12-20T09:50:25.212Z,990.53
2022-12-20T09:51:25.118Z,990.51
2022-12-20T09:52:25.115Z,990.50
2022-12-20T09:53:25.111Z,990.48
2022-12-20T09:54:25.085Z,990.48
2022-12-20T09:55:25.151Z,990.44
2022-12-20T09:56:25.072Z,990.48
2022-12-20T09:57:25.111Z,990.47
2022-12-20T09:58:25.040Z,990.38
2022-12-20T09:59:25.021Z,990.39
2022-12-20T10:00:25.093Z,990.35
2022-12-20T10:01:26.528Z,990.31
2022-12-20T10:02:57.157Z,990.26
2022-12-20T10:03:27.069Z,990.27
2022-12-20T10:04:25.197Z,990.33
2022-12-20T10:05:25.098Z,990.33
2022-12-20T10:06:24.938Z,990.41
2022-12-20T10:07:24.972Z,990.39
2022-12-20T10:08:24.948Z,990.39
2022-12-20T10:09:24.943Z,990.49
2022-12-20T10:10:24.939Z,990.38
2022-12-20T10:11:24.893Z,990.35
2022-12-20T10:12:24.907Z,990.29
2022-12-20T10:13:24.878Z,990.22
2022-12-20T10:14:24.888Z,990.22
2022-12-20T10:15:24.890Z,990.26
2022-12-20T10:16:24.974Z,990.27
2022-12-20T10:17:30.513Z,990.24
2022-12-20T10:18:25.858Z,990.18
2022-12-20T10:19:24.822Z,990.18
2022-12-20T10:20:24.820Z,990.23
2022-12-20T10:21:24.844Z,990.23
2022-12-20T10:22:24.846Z,990.18
2022-12-20T10:23:31.098Z,990.20
2022-12-20T10:24:25.790Z,990.20
2022-12-20T10:25:24.763Z,990.17
2022-12-20T10:26:24.764Z,990.21
2022-12-20T10:27:24.795Z,990.21
2022-12-20T10:28:24.776Z,990.19
2022-12-20T10:29:24.719Z,990.16
2022-12-20T10:30:24.742Z,990.14
2022-12-20T10:31:24.737Z,990.14
2022-12-20T10:32:24.715Z,990.09
2022-12-20T10:33:24.731Z,990.04
2022-12-20T10:34:24.697Z,990.07
2022-12-20T10:35:24.702Z,989.97
2022-12-20T10:36:24.665Z,989.96
2022-12-20T10:37:24.688Z,989.94
2022-12-20T10:38:24.693Z,989.95
2022-12-20T10:39:24.632Z,989.92
2022-12-20T10:40:34.406Z,989.91
2022-12-20T10:41:25.638Z,989.91
2022-12-20T10:42:24.610Z,989.94
2022-12-20T10:43:24.620Z,989.88
2022-12-20T10:44:24.688Z,989.88
2022-12-20T10:45:24.575Z,989.83
2022-12-20T10:46:24.608Z,989.79
2022-12-20T10:47:24.584Z,989.81
2022-12-20T10:48:24.704Z,989.75
2022-12-20T10:49:24.545Z,989.77
2022-12-20T10:50:24.547Z,989.78
2022-12-20T10:51:24.548Z,989.77
2022-12-20T10:52:24.532Z,989.81
2022-12-20T10:53:24.521Z,989.71
2022-12-20T10:54:24.496Z,989.71
2022-12-20T10:55:24.492Z,989.68
2022-12-20T10:56:24.504Z,989.69
2022-12-20T10:57:24.502Z,989.60
2022-12-20T10:58:24.490Z,989.75
2022-12-20T10:59:24.485Z,989.72
2022-12-20T11:00:24.440Z,989.68
2022-12-20T11:01:24.470Z,989.69
2022-12-20T11:02:25.736Z,989.68
2022-12-20T11:03:24.590Z,989.72
2022-12-20T11:04:24.431Z,989.76
2022-12-20T11:05:24.397Z,989.73
2022-12-20T11:06:24.373Z,989.68
2022-12-20T11:07:24.403Z,989.67
2022-12-20T11:08:37.499Z,989.61
2022-12-20T11:09:26.336Z,989.52
2022-12-20T11:10:24.380Z,989.58
2022-12-20T11:11:24.325Z,989.53
2022-12-20T11:12:24.312Z,989.52
2022-12-20T11:13:24.347Z,989.54
2022-12-20T11:14:24.292Z,989.61
2022-12-20T11:15:33.571Z,989.60
2022-12-20T11:16:25.401Z,989.56
2022-12-20T11:17:24.257Z,989.59
2022-12-20T11:18:24.261Z,989.59
2022-12-20T11:19:24.232Z,989.59
2022-12-20T11:20:24.223Z,989.58
2022-12-20T11:21:27.850Z,989.59
2022-12-20T11:22:25.213Z,989.65
2022-12-20T11:23:24.361Z,989.63
2022-12-20T11:24:24.192Z,989.59
2022-12-20T11:25:24.186Z,989.60
2022-12-20T11:26:24.169Z,989.58
2022-12-20T11:27:24.172Z,989.55
2022-12-20T11:28:24.148Z,989.59
2022-12-20T11:29:24.151Z,989.52
2022-12-20T11:30:24.145Z,989.52
2022-12-20T11:31:24.223Z,989.52
2022-12-20T11:32:24.084Z,989.43
2022-12-20T11:33:24.093Z,989.45
2022-12-20T11:34:24.096Z,989.44
2022-12-20T11:35:24.071Z,989.50
2022-12-20T11:36:24.077Z,989.40
2022-12-20T11:37:24.067Z,989.39
2022-12-20T11:38:24.074Z,989.41
2022-12-20T11:39:24.028Z,989.39
2022-12-20T11:40:24.029Z,989.37
2022-12-20T11:41:24.001Z,989.29
2022-12-20T11:42:24.129Z,989.31
2022-12-20T11:43:23.995Z,989.35
2022-12-20T11:44:26.327Z,989.36
2022-12-20T11:45:24.967Z,989.36
2022-12-20T11:46:24.018Z,989.35
2022-12-20T11:47:23.973Z,989.33
2022-12-20T11:48:23.951Z,989.32
2022-12-20T11:49:23.940Z,989.28
2022-12-20T11:50:23.915Z,989.28
2022-12-20T11:51:26.704Z,989.27
2022-12-20T11:52:24.922Z,989.19
2022-12-20T11:53:23.901Z,989.27
2022-12-20T11:54:23.891Z,989.21
2022-12-20T11:55:23.872Z,989.20
2022-12-20T11:56:23.870Z,989.14
2022-12-20T11:57:23.849Z,989.21
2022-12-20T11:58:23.905Z,989.17
2022-12-20T11:59:23.920Z,989.13
2022-12-20T12:00:23.863Z,989.15
2022-12-20T12:01:23.879Z,989.14
2022-12-20T12:02:23.924Z,989.11
2022-12-20T12:03:23.859Z,989.14
2022-12-20T12:04:23.820Z,989.12
2022-12-20T12:05:23.822Z,989.17
2022-12-20T12:06:23.793Z,989.21
2022-12-20T12:07:23.753Z,989.20
2022-12-20T12:08:23.752Z,989.19
2022-12-20T12:09:23.739Z,989.20
2022-12-20T12:10:23.723Z,989.23
2022-12-20T12:12:04.605Z,989.23
2022-12-20T12:12:25.698Z,989.17
2022-12-20T12:13:23.789Z,989.19
2022-12-20T12:14:23.705Z,989.22
2022-12-20T12:15:23.650Z,989.19
2022-12-20T12:16:23.697Z,989.22
2022-12-20T12:17:23.690Z,989.21
2022-12-20T12:18:23.635Z,989.22
2022-12-20T12:19:23.632Z,989.21
2022-12-20T12:20:23.639Z,989.24
2022-12-20T12:21:23.645Z,989.23
2022-12-20T12:22:23.604Z,989.15
2022-12-20T12:23:23.594Z,989.17
2022-12-20T12:24:23.600Z,989.12
2022-12-20T12:25:23.586Z,989.10
2022-12-20T12:26:23.568Z,989.10
2022-12-20T12:27:23.552Z,989.03
2022-12-20T12:28:23.561Z,989.03
2022-12-20T12:29:23.545Z,988.99